<?xml version="1.0" encoding="UTF-8" standalone="no" ?>
<gpx xmlns="http://www.topografix.com/GPX/1/1" xmlns:xsi="http://www.w3.org/2001/XMLSchema-instance" xsi:schemaLocation="http://www.topografix.com/GPX/1/1 http://www.topografix.com/GPX/1/1/gpx.xsd" version="1.1" creator="VisuGPX - https://www.visugpx.com">
  <metadata>
    <name>Remise en forme Juin 2017</name>
    <desc><![CDATA[Pour une petite remise en forme parcours vélo pas trop difficile, mais très bien pour un début.]]></desc>
  </metadata>
  <trk>
    <name><![CDATA[Remise en forme Juin 2017_1]]></name>
    <trkseg>
      <trkpt lat="49.98124" lon="5.26846">
        <ele>267</ele>
        <time>2017-06-17T08:38:23Z</time>
      </trkpt>
      <trkpt lat="49.98239" lon="5.26749">
        <ele>271</ele>
        <time>2017-06-17T08:38:33Z</time>
      </trkpt>
      <trkpt lat="49.9826" lon="5.26739">
        <ele>272</ele>
        <time>2017-06-17T08:38:43Z</time>
      </trkpt>
      <trkpt lat="49.98284" lon="5.26732">
        <ele>274</ele>
        <time>2017-06-17T08:38:54Z</time>
      </trkpt>
      <trkpt lat="49.98307" lon="5.26727">
        <ele>276</ele>
        <time>2017-06-17T08:39:04Z</time>
      </trkpt>
      <trkpt lat="49.98328" lon="5.26721">
        <ele>277</ele>
        <time>2017-06-17T08:39:15Z</time>
      </trkpt>
      <trkpt lat="49.98349" lon="5.26717">
        <ele>279</ele>
        <time>2017-06-17T08:39:25Z</time>
      </trkpt>
      <trkpt lat="49.98372" lon="5.26714">
        <ele>280</ele>
        <time>2017-06-17T08:39:36Z</time>
      </trkpt>
      <trkpt lat="49.98384" lon="5.26739">
        <ele>281</ele>
        <time>2017-06-17T08:39:47Z</time>
      </trkpt>
      <trkpt lat="49.98391" lon="5.26767">
        <ele>282</ele>
        <time>2017-06-17T08:39:57Z</time>
      </trkpt>
      <trkpt lat="49.98396" lon="5.268">
        <ele>283</ele>
        <time>2017-06-17T08:40:07Z</time>
      </trkpt>
      <trkpt lat="49.98401" lon="5.26839">
        <ele>284</ele>
        <time>2017-06-17T08:40:17Z</time>
      </trkpt>
      <trkpt lat="49.9841" lon="5.26866">
        <ele>285</ele>
        <time>2017-06-17T08:40:27Z</time>
      </trkpt>
      <trkpt lat="49.98416" lon="5.269">
        <ele>286</ele>
        <time>2017-06-17T08:40:37Z</time>
      </trkpt>
      <trkpt lat="49.98421" lon="5.26941">
        <ele>288</ele>
        <time>2017-06-17T08:40:48Z</time>
      </trkpt>
      <trkpt lat="49.98425" lon="5.26974">
        <ele>289</ele>
        <time>2017-06-17T08:40:58Z</time>
      </trkpt>
      <trkpt lat="49.98428" lon="5.27006">
        <ele>290</ele>
        <time>2017-06-17T08:41:08Z</time>
      </trkpt>
      <trkpt lat="49.98433" lon="5.27044">
        <ele>292</ele>
        <time>2017-06-17T08:41:18Z</time>
      </trkpt>
      <trkpt lat="49.98436" lon="5.27082">
        <ele>293</ele>
        <time>2017-06-17T08:41:29Z</time>
      </trkpt>
      <trkpt lat="49.98437" lon="5.27113">
        <ele>295</ele>
        <time>2017-06-17T08:41:39Z</time>
      </trkpt>
      <trkpt lat="49.98438" lon="5.27148">
        <ele>296</ele>
        <time>2017-06-17T08:41:50Z</time>
      </trkpt>
      <trkpt lat="49.98439" lon="5.27178">
        <ele>298</ele>
        <time>2017-06-17T08:42:00Z</time>
      </trkpt>
      <trkpt lat="49.98439" lon="5.2721">
        <ele>299</ele>
        <time>2017-06-17T08:42:11Z</time>
      </trkpt>
      <trkpt lat="49.98438" lon="5.27244">
        <ele>300</ele>
        <time>2017-06-17T08:42:21Z</time>
      </trkpt>
      <trkpt lat="49.98437" lon="5.27282">
        <ele>302</ele>
        <time>2017-06-17T08:42:32Z</time>
      </trkpt>
      <trkpt lat="49.98435" lon="5.27319">
        <ele>302</ele>
        <time>2017-06-17T08:42:43Z</time>
      </trkpt>
      <trkpt lat="49.98433" lon="5.27363">
        <ele>303</ele>
        <time>2017-06-17T08:42:54Z</time>
      </trkpt>
      <trkpt lat="49.98431" lon="5.27416">
        <ele>304</ele>
        <time>2017-06-17T08:43:05Z</time>
      </trkpt>
      <trkpt lat="49.98435" lon="5.2748">
        <ele>304</ele>
        <time>2017-06-17T08:43:15Z</time>
      </trkpt>
      <trkpt lat="49.98452" lon="5.27562">
        <ele>304</ele>
        <time>2017-06-17T08:43:25Z</time>
      </trkpt>
      <trkpt lat="49.98471" lon="5.27656">
        <ele>302</ele>
        <time>2017-06-17T08:43:36Z</time>
      </trkpt>
      <trkpt lat="49.98487" lon="5.27734">
        <ele>301</ele>
        <time>2017-06-17T08:43:46Z</time>
      </trkpt>
      <trkpt lat="49.98501" lon="5.27813">
        <ele>302</ele>
        <time>2017-06-17T08:43:57Z</time>
      </trkpt>
      <trkpt lat="49.98513" lon="5.27883">
        <ele>303</ele>
        <time>2017-06-17T08:44:08Z</time>
      </trkpt>
      <trkpt lat="49.98524" lon="5.27922">
        <ele>305</ele>
        <time>2017-06-17T08:44:18Z</time>
      </trkpt>
      <trkpt lat="49.98536" lon="5.27958">
        <ele>306</ele>
        <time>2017-06-17T08:44:29Z</time>
      </trkpt>
      <trkpt lat="49.9855" lon="5.2799">
        <ele>308</ele>
        <time>2017-06-17T08:44:40Z</time>
      </trkpt>
      <trkpt lat="49.98562" lon="5.28022">
        <ele>309</ele>
        <time>2017-06-17T08:44:51Z</time>
      </trkpt>
      <trkpt lat="49.98572" lon="5.28048">
        <ele>311</ele>
        <time>2017-06-17T08:45:01Z</time>
      </trkpt>
      <trkpt lat="49.98584" lon="5.28076">
        <ele>313</ele>
        <time>2017-06-17T08:45:12Z</time>
      </trkpt>
      <trkpt lat="49.98597" lon="5.28106">
        <ele>314</ele>
        <time>2017-06-17T08:45:23Z</time>
      </trkpt>
      <trkpt lat="49.98608" lon="5.28133">
        <ele>316</ele>
        <time>2017-06-17T08:45:33Z</time>
      </trkpt>
      <trkpt lat="49.98621" lon="5.28164">
        <ele>317</ele>
        <time>2017-06-17T08:45:44Z</time>
      </trkpt>
      <trkpt lat="49.98632" lon="5.28191">
        <ele>319</ele>
        <time>2017-06-17T08:45:54Z</time>
      </trkpt>
      <trkpt lat="49.98646" lon="5.28223">
        <ele>320</ele>
        <time>2017-06-17T08:46:05Z</time>
      </trkpt>
      <trkpt lat="49.9866" lon="5.28252">
        <ele>320</ele>
        <time>2017-06-17T08:46:15Z</time>
      </trkpt>
      <trkpt lat="49.98687" lon="5.28236">
        <ele>321</ele>
        <time>2017-06-17T08:46:26Z</time>
      </trkpt>
      <trkpt lat="49.98716" lon="5.28212">
        <ele>322</ele>
        <time>2017-06-17T08:46:37Z</time>
      </trkpt>
      <trkpt lat="49.98755" lon="5.28184">
        <ele>322</ele>
        <time>2017-06-17T08:46:47Z</time>
      </trkpt>
      <trkpt lat="49.98812" lon="5.28146">
        <ele>321</ele>
        <time>2017-06-17T08:46:58Z</time>
      </trkpt>
      <trkpt lat="49.98853" lon="5.28114">
        <ele>316</ele>
        <time>2017-06-17T08:47:08Z</time>
      </trkpt>
      <trkpt lat="49.98854" lon="5.28113">
        <ele>315</ele>
        <time>2017-06-17T08:47:19Z</time>
      </trkpt>
      <trkpt lat="49.98855" lon="5.28113">
        <ele>315</ele>
        <time>2017-06-17T08:47:31Z</time>
      </trkpt>
      <trkpt lat="49.98856" lon="5.28113">
        <ele>315</ele>
        <time>2017-06-17T08:47:42Z</time>
      </trkpt>
      <trkpt lat="49.98856" lon="5.28113">
        <ele>315</ele>
        <time>2017-06-17T08:47:55Z</time>
      </trkpt>
      <trkpt lat="49.98856" lon="5.28113">
        <ele>315</ele>
        <time>2017-06-17T08:48:10Z</time>
      </trkpt>
      <trkpt lat="49.98856" lon="5.28113">
        <ele>315</ele>
        <time>2017-06-17T08:48:21Z</time>
      </trkpt>
      <trkpt lat="49.98856" lon="5.28113">
        <ele>315</ele>
        <time>2017-06-17T08:48:32Z</time>
      </trkpt>
      <trkpt lat="49.98856" lon="5.28113">
        <ele>315</ele>
        <time>2017-06-17T08:48:42Z</time>
      </trkpt>
      <trkpt lat="49.98855" lon="5.28113">
        <ele>315</ele>
        <time>2017-06-17T08:48:55Z</time>
      </trkpt>
      <trkpt lat="49.98855" lon="5.28113">
        <ele>315</ele>
        <time>2017-06-17T08:49:07Z</time>
      </trkpt>
      <trkpt lat="49.98856" lon="5.28113">
        <ele>315</ele>
        <time>2017-06-17T08:49:19Z</time>
      </trkpt>
      <trkpt lat="49.98857" lon="5.28112">
        <ele>316</ele>
        <time>2017-06-17T08:49:30Z</time>
      </trkpt>
      <trkpt lat="49.98858" lon="5.2811">
        <ele>315</ele>
        <time>2017-06-17T08:49:40Z</time>
      </trkpt>
      <trkpt lat="49.98878" lon="5.28094">
        <ele>315</ele>
        <time>2017-06-17T08:49:50Z</time>
      </trkpt>
      <trkpt lat="49.98885" lon="5.28088">
        <ele>313</ele>
        <time>2017-06-17T08:50:01Z</time>
      </trkpt>
      <trkpt lat="49.98899" lon="5.28078">
        <ele>313</ele>
        <time>2017-06-17T08:50:11Z</time>
      </trkpt>
      <trkpt lat="49.98946" lon="5.28039">
        <ele>312</ele>
        <time>2017-06-17T08:50:22Z</time>
      </trkpt>
      <trkpt lat="49.98983" lon="5.28011">
        <ele>308</ele>
        <time>2017-06-17T08:50:32Z</time>
      </trkpt>
      <trkpt lat="49.98999" lon="5.28045">
        <ele>307</ele>
        <time>2017-06-17T08:50:43Z</time>
      </trkpt>
      <trkpt lat="49.99013" lon="5.28088">
        <ele>308</ele>
        <time>2017-06-17T08:50:54Z</time>
      </trkpt>
      <trkpt lat="49.99053" lon="5.28076">
        <ele>308</ele>
        <time>2017-06-17T08:51:04Z</time>
      </trkpt>
      <trkpt lat="49.99099" lon="5.28039">
        <ele>307</ele>
        <time>2017-06-17T08:51:14Z</time>
      </trkpt>
      <trkpt lat="49.99111" lon="5.27978">
        <ele>306</ele>
        <time>2017-06-17T08:51:24Z</time>
      </trkpt>
      <trkpt lat="49.99118" lon="5.27898">
        <ele>306</ele>
        <time>2017-06-17T08:51:34Z</time>
      </trkpt>
      <trkpt lat="49.99131" lon="5.27806">
        <ele>305</ele>
        <time>2017-06-17T08:51:44Z</time>
      </trkpt>
      <trkpt lat="49.99152" lon="5.277">
        <ele>303</ele>
        <time>2017-06-17T08:51:55Z</time>
      </trkpt>
      <trkpt lat="49.99184" lon="5.27593">
        <ele>302</ele>
        <time>2017-06-17T08:52:06Z</time>
      </trkpt>
      <trkpt lat="49.99211" lon="5.27505">
        <ele>300</ele>
        <time>2017-06-17T08:52:16Z</time>
      </trkpt>
      <trkpt lat="49.9923" lon="5.27429">
        <ele>302</ele>
        <time>2017-06-17T08:52:27Z</time>
      </trkpt>
      <trkpt lat="49.99234" lon="5.27371">
        <ele>304</ele>
        <time>2017-06-17T08:52:37Z</time>
      </trkpt>
      <trkpt lat="49.99229" lon="5.27315">
        <ele>306</ele>
        <time>2017-06-17T08:52:48Z</time>
      </trkpt>
      <trkpt lat="49.99226" lon="5.27296">
        <ele>306</ele>
        <time>2017-06-17T08:52:58Z</time>
      </trkpt>
      <trkpt lat="49.99229" lon="5.27292">
        <ele>306</ele>
        <time>2017-06-17T08:53:08Z</time>
      </trkpt>
      <trkpt lat="49.99231" lon="5.2729">
        <ele>306</ele>
        <time>2017-06-17T08:53:19Z</time>
      </trkpt>
      <trkpt lat="49.99232" lon="5.27289">
        <ele>306</ele>
        <time>2017-06-17T08:53:29Z</time>
      </trkpt>
      <trkpt lat="49.99235" lon="5.27287">
        <ele>306</ele>
        <time>2017-06-17T08:53:39Z</time>
      </trkpt>
      <trkpt lat="49.99237" lon="5.27285">
        <ele>306</ele>
        <time>2017-06-17T08:53:50Z</time>
      </trkpt>
      <trkpt lat="49.99237" lon="5.27283">
        <ele>306</ele>
        <time>2017-06-17T08:54:01Z</time>
      </trkpt>
      <trkpt lat="49.99238" lon="5.27282">
        <ele>306</ele>
        <time>2017-06-17T08:54:13Z</time>
      </trkpt>
      <trkpt lat="49.99239" lon="5.2728">
        <ele>306</ele>
        <time>2017-06-17T08:54:24Z</time>
      </trkpt>
      <trkpt lat="49.9924" lon="5.27277">
        <ele>306</ele>
        <time>2017-06-17T08:54:35Z</time>
      </trkpt>
      <trkpt lat="49.99243" lon="5.27275">
        <ele>306</ele>
        <time>2017-06-17T08:54:45Z</time>
      </trkpt>
      <trkpt lat="49.99245" lon="5.27272">
        <ele>306</ele>
        <time>2017-06-17T08:54:56Z</time>
      </trkpt>
      <trkpt lat="49.99246" lon="5.27271">
        <ele>306</ele>
        <time>2017-06-17T08:55:07Z</time>
      </trkpt>
      <trkpt lat="49.99246" lon="5.27271">
        <ele>306</ele>
        <time>2017-06-17T08:55:17Z</time>
      </trkpt>
      <trkpt lat="49.99245" lon="5.27271">
        <ele>306</ele>
        <time>2017-06-17T08:55:28Z</time>
      </trkpt>
      <trkpt lat="49.99243" lon="5.27274">
        <ele>306</ele>
        <time>2017-06-17T08:55:38Z</time>
      </trkpt>
      <trkpt lat="49.9924" lon="5.27276">
        <ele>306</ele>
        <time>2017-06-17T08:55:49Z</time>
      </trkpt>
      <trkpt lat="49.99239" lon="5.27278">
        <ele>306</ele>
        <time>2017-06-17T08:56:01Z</time>
      </trkpt>
      <trkpt lat="49.99237" lon="5.2728">
        <ele>306</ele>
        <time>2017-06-17T08:56:11Z</time>
      </trkpt>
      <trkpt lat="49.99237" lon="5.27281">
        <ele>306</ele>
        <time>2017-06-17T08:56:21Z</time>
      </trkpt>
      <trkpt lat="49.99236" lon="5.27282">
        <ele>306</ele>
        <time>2017-06-17T08:56:31Z</time>
      </trkpt>
      <trkpt lat="49.99236" lon="5.27274">
        <ele>306</ele>
        <time>2017-06-17T08:56:41Z</time>
      </trkpt>
      <trkpt lat="49.99232" lon="5.27241">
        <ele>306</ele>
        <time>2017-06-17T08:56:52Z</time>
      </trkpt>
      <trkpt lat="49.99223" lon="5.272">
        <ele>307</ele>
        <time>2017-06-17T08:57:03Z</time>
      </trkpt>
      <trkpt lat="49.99218" lon="5.27118">
        <ele>307</ele>
        <time>2017-06-17T08:57:14Z</time>
      </trkpt>
      <trkpt lat="49.99222" lon="5.27029">
        <ele>305</ele>
        <time>2017-06-17T08:57:24Z</time>
      </trkpt>
      <trkpt lat="49.99219" lon="5.26925">
        <ele>300</ele>
        <time>2017-06-17T08:57:35Z</time>
      </trkpt>
      <trkpt lat="49.99221" lon="5.2682">
        <ele>297</ele>
        <time>2017-06-17T08:57:45Z</time>
      </trkpt>
      <trkpt lat="49.99252" lon="5.26785">
        <ele>296</ele>
        <time>2017-06-17T08:57:56Z</time>
      </trkpt>
      <trkpt lat="49.99279" lon="5.26781">
        <ele>298</ele>
        <time>2017-06-17T08:58:06Z</time>
      </trkpt>
      <trkpt lat="49.99313" lon="5.26779">
        <ele>301</ele>
        <time>2017-06-17T08:58:17Z</time>
      </trkpt>
      <trkpt lat="49.99345" lon="5.26779">
        <ele>302</ele>
        <time>2017-06-17T08:58:28Z</time>
      </trkpt>
      <trkpt lat="49.99371" lon="5.2678">
        <ele>303</ele>
        <time>2017-06-17T08:58:38Z</time>
      </trkpt>
      <trkpt lat="49.99402" lon="5.26782">
        <ele>304</ele>
        <time>2017-06-17T08:58:48Z</time>
      </trkpt>
      <trkpt lat="49.99428" lon="5.26769">
        <ele>305</ele>
        <time>2017-06-17T08:58:59Z</time>
      </trkpt>
      <trkpt lat="49.99434" lon="5.26718">
        <ele>306</ele>
        <time>2017-06-17T08:59:09Z</time>
      </trkpt>
      <trkpt lat="49.99428" lon="5.26642">
        <ele>306</ele>
        <time>2017-06-17T08:59:19Z</time>
      </trkpt>
      <trkpt lat="49.99405" lon="5.26546">
        <ele>305</ele>
        <time>2017-06-17T08:59:30Z</time>
      </trkpt>
      <trkpt lat="49.99361" lon="5.26462">
        <ele>303</ele>
        <time>2017-06-17T08:59:41Z</time>
      </trkpt>
      <trkpt lat="49.99303" lon="5.26398">
        <ele>301</ele>
        <time>2017-06-17T08:59:51Z</time>
      </trkpt>
      <trkpt lat="49.9926" lon="5.26315">
        <ele>298</ele>
        <time>2017-06-17T09:00:01Z</time>
      </trkpt>
      <trkpt lat="49.99224" lon="5.26224">
        <ele>297</ele>
        <time>2017-06-17T09:00:11Z</time>
      </trkpt>
      <trkpt lat="49.9918" lon="5.26132">
        <ele>296</ele>
        <time>2017-06-17T09:00:22Z</time>
      </trkpt>
      <trkpt lat="49.9914" lon="5.2605">
        <ele>294</ele>
        <time>2017-06-17T09:00:32Z</time>
      </trkpt>
      <trkpt lat="49.99095" lon="5.25984">
        <ele>293</ele>
        <time>2017-06-17T09:00:43Z</time>
      </trkpt>
      <trkpt lat="49.9904" lon="5.25969">
        <ele>294</ele>
        <time>2017-06-17T09:00:53Z</time>
      </trkpt>
      <trkpt lat="49.98982" lon="5.25946">
        <ele>293</ele>
        <time>2017-06-17T09:01:04Z</time>
      </trkpt>
      <trkpt lat="49.98932" lon="5.25925">
        <ele>293</ele>
        <time>2017-06-17T09:01:14Z</time>
      </trkpt>
      <trkpt lat="49.98874" lon="5.25885">
        <ele>293</ele>
        <time>2017-06-17T09:01:25Z</time>
      </trkpt>
      <trkpt lat="49.98801" lon="5.25829">
        <ele>291</ele>
        <time>2017-06-17T09:01:36Z</time>
      </trkpt>
      <trkpt lat="49.98726" lon="5.25772">
        <ele>286</ele>
        <time>2017-06-17T09:01:46Z</time>
      </trkpt>
      <trkpt lat="49.98635" lon="5.25716">
        <ele>282</ele>
        <time>2017-06-17T09:01:57Z</time>
      </trkpt>
      <trkpt lat="49.98553" lon="5.2562">
        <ele>275</ele>
        <time>2017-06-17T09:02:08Z</time>
      </trkpt>
      <trkpt lat="49.9857" lon="5.25494">
        <ele>270</ele>
        <time>2017-06-17T09:02:18Z</time>
      </trkpt>
      <trkpt lat="49.98555" lon="5.25405">
        <ele>268</ele>
        <time>2017-06-17T09:02:28Z</time>
      </trkpt>
      <trkpt lat="49.98515" lon="5.2537">
        <ele>270</ele>
        <time>2017-06-17T09:02:39Z</time>
      </trkpt>
      <trkpt lat="49.98469" lon="5.25396">
        <ele>269</ele>
        <time>2017-06-17T09:02:49Z</time>
      </trkpt>
      <trkpt lat="49.98405" lon="5.2545">
        <ele>268</ele>
        <time>2017-06-17T09:03:00Z</time>
      </trkpt>
      <trkpt lat="49.9837" lon="5.25526">
        <ele>268</ele>
        <time>2017-06-17T09:03:10Z</time>
      </trkpt>
      <trkpt lat="49.98335" lon="5.25593">
        <ele>268</ele>
        <time>2017-06-17T09:03:20Z</time>
      </trkpt>
      <trkpt lat="49.98296" lon="5.2565">
        <ele>267</ele>
        <time>2017-06-17T09:03:31Z</time>
      </trkpt>
      <trkpt lat="49.98315" lon="5.2577">
        <ele>265</ele>
        <time>2017-06-17T09:03:41Z</time>
      </trkpt>
      <trkpt lat="49.98354" lon="5.25881">
        <ele>261</ele>
        <time>2017-06-17T09:03:52Z</time>
      </trkpt>
      <trkpt lat="49.98349" lon="5.25971">
        <ele>260</ele>
        <time>2017-06-17T09:04:02Z</time>
      </trkpt>
      <trkpt lat="49.98326" lon="5.26026">
        <ele>264</ele>
        <time>2017-06-17T09:04:12Z</time>
      </trkpt>
      <trkpt lat="49.98289" lon="5.26046">
        <ele>265</ele>
        <time>2017-06-17T09:04:22Z</time>
      </trkpt>
      <trkpt lat="49.98256" lon="5.26086">
        <ele>266</ele>
        <time>2017-06-17T09:04:33Z</time>
      </trkpt>
      <trkpt lat="49.98259" lon="5.26134">
        <ele>267</ele>
        <time>2017-06-17T09:04:43Z</time>
      </trkpt>
      <trkpt lat="49.98271" lon="5.26179">
        <ele>269</ele>
        <time>2017-06-17T09:04:53Z</time>
      </trkpt>
      <trkpt lat="49.98283" lon="5.26224">
        <ele>270</ele>
        <time>2017-06-17T09:05:03Z</time>
      </trkpt>
      <trkpt lat="49.98297" lon="5.26272">
        <ele>272</ele>
        <time>2017-06-17T09:05:14Z</time>
      </trkpt>
      <trkpt lat="49.98312" lon="5.26317">
        <ele>274</ele>
        <time>2017-06-17T09:05:24Z</time>
      </trkpt>
      <trkpt lat="49.9833" lon="5.26366">
        <ele>276</ele>
        <time>2017-06-17T09:05:34Z</time>
      </trkpt>
      <trkpt lat="49.98343" lon="5.26421">
        <ele>277</ele>
        <time>2017-06-17T09:05:45Z</time>
      </trkpt>
      <trkpt lat="49.98351" lon="5.26479">
        <ele>277</ele>
        <time>2017-06-17T09:05:56Z</time>
      </trkpt>
      <trkpt lat="49.98359" lon="5.26542">
        <ele>279</ele>
        <time>2017-06-17T09:06:07Z</time>
      </trkpt>
      <trkpt lat="49.98366" lon="5.26602">
        <ele>280</ele>
        <time>2017-06-17T09:06:17Z</time>
      </trkpt>
      <trkpt lat="49.98373" lon="5.26664">
        <ele>281</ele>
        <time>2017-06-17T09:06:27Z</time>
      </trkpt>
      <trkpt lat="49.98366" lon="5.26712">
        <ele>282</ele>
        <time>2017-06-17T09:06:38Z</time>
      </trkpt>
      <trkpt lat="49.98312" lon="5.26725">
        <ele>281</ele>
        <time>2017-06-17T09:06:48Z</time>
      </trkpt>
      <trkpt lat="49.98229" lon="5.26759">
        <ele>278</ele>
        <time>2017-06-17T09:06:58Z</time>
      </trkpt>
      <trkpt lat="49.98161" lon="5.26775">
        <ele>269</ele>
        <time>2017-06-17T09:07:09Z</time>
      </trkpt>
      <trkpt lat="49.98146" lon="5.26839">
        <ele>269</ele>
        <time>2017-06-17T09:07:19Z</time>
      </trkpt>
      <trkpt lat="49.98135" lon="5.26844">
        <ele>269</ele>
        <time>2017-06-17T09:07:29Z</time>
      </trkpt>
    </trkseg>
  </trk>
</gpx>